createdAt,value
2022-08-31T00:00:09.575Z,1.10
2022-08-31T00:02:54.684Z,1.20
2022-08-31T00:05:22.938Z,1.15
2022-08-31T00:07:51.010Z,1.23
2022-08-31T00:10:31.633Z,1.20
2022-08-31T00:13:09.710Z,1.20
2022-08-31T00:15:37.780Z,1.10
2022-08-31T00:18:06.024Z,1.20
2022-08-31T00:20:34.700Z,1.10
2022-08-31T00:23:03.408Z,1.00
2022-08-31T00:25:31.578Z,1.17
2022-08-31T00:27:59.684Z,1.05
2022-08-31T00:30:29.130Z,1.10
2022-08-31T00:32:58.561Z,1.00
2022-08-31T00:35:26.969Z,1.10
2022-08-31T00:37:55.037Z,1.17
2022-08-31T00:40:23.354Z,1.30
2022-08-31T00:42:51.509Z,1.05
2022-08-31T00:45:19.533Z,1.00
2022-08-31T00:47:48.981Z,1.10
2022-08-31T00:50:17.841Z,1.02
2022-08-31T00:52:47.254Z,0.98
2022-08-31T00:55:17.741Z,1.15
2022-08-31T00:57:47.393Z,1.30
2022-08-31T01:00:18.037Z,1.00
2022-08-31T01:02:46.185Z,1.05
2022-08-31T01:05:15.728Z,1.10
2022-08-31T01:07:43.967Z,1.20
2022-08-31T01:10:12.011Z,1.20
2022-08-31T01:12:40.050Z,1.15
2022-08-31T01:15:09.460Z,1.00
2022-08-31T01:17:39.017Z,1.10
2022-08-31T01:20:10.903Z,1.10
2022-08-31T01:22:41.964Z,1.20
2022-08-31T01:25:11.349Z,1.10
2022-08-31T01:27:39.267Z,1.10
2022-08-31T01:30:10.769Z,1.10
2022-08-31T01:32:38.770Z,1.30
2022-08-31T01:35:11.616Z,1.10
2022-08-31T01:37:39.667Z,1.00
2022-08-31T01:40:08.791Z,1.02
2022-08-31T01:42:38.279Z,1.02
2022-08-31T01:45:07.118Z,1.13
2022-08-31T01:47:35.340Z,1.17
2022-08-31T01:50:03.325Z,1.10
2022-08-31T01:52:31.291Z,1.20
2022-08-31T01:54:59.287Z,1.20
2022-08-31T01:57:33.789Z,1.23
2022-08-31T02:00:04.730Z,1.20
2022-08-31T02:02:33.091Z,1.20
2022-08-31T02:05:01.154Z,1.23
2022-08-31T02:07:29.199Z,1.20
2022-08-31T02:09:57.349Z,1.05
2022-08-31T02:12:25.362Z,1.15
2022-08-31T02:14:53.371Z,1.00
2022-08-31T02:17:22.794Z,1.10
2022-08-31T02:19:50.826Z,1.10
2022-08-31T02:22:18.798Z,0.95
2022-08-31T02:24:46.806Z,1.30
2022-08-31T02:27:14.797Z,1.15
2022-08-31T02:29:42.915Z,1.20
2022-08-31T02:32:19.625Z,1.05
2022-08-31T02:34:49.737Z,1.27
2022-08-31T02:37:17.843Z,1.30
2022-08-31T02:39:48.754Z,1.27
2022-08-31T02:42:18.437Z,1.17
2022-08-31T02:44:46.716Z,1.20
2022-08-31T02:47:14.749Z,1.20
2022-08-31T02:49:42.785Z,1.10
2022-08-31T02:52:12.359Z,1.20
2022-08-31T02:54:40.357Z,1.13
2022-08-31T02:57:08.452Z,1.27
2022-08-31T02:59:36.463Z,1.27
2022-08-31T03:02:04.623Z,1.00
2022-08-31T03:04:32.749Z,1.13
2022-08-31T03:07:00.785Z,1.17
2022-08-31T03:09:31.792Z,1.10
2022-08-31T03:11:59.847Z,1.10
2022-08-31T03:14:27.972Z,1.20
2022-08-31T03:16:56.078Z,1.10
2022-08-31T03:19:24.063Z,1.15
2022-08-31T03:21:55.875Z,1.00
2022-08-31T03:24:27.140Z,1.20
2022-08-31T03:26:57.340Z,1.35
2022-08-31T03:29:25.411Z,1.35
2022-08-31T03:31:53.520Z,1.05
2022-08-31T03:34:21.588Z,1.30
2022-08-31T03:36:49.677Z,1.10
2022-08-31T03:39:17.687Z,1.10
2022-08-31T03:41:45.747Z,1.20
2022-08-31T03:44:15.237Z,1.20
2022-08-31T03:46:45.855Z,1.00
2022-08-31T03:49:14.026Z,1.13
2022-08-31T03:51:42.035Z,1.23
2022-08-31T03:54:10.047Z,1.17
2022-08-31T03:56:38.129Z,1.30
2022-08-31T03:59:06.877Z,0.98
2022-08-31T04:01:36.454Z,1.00
2022-08-31T04:04:05.117Z,1.30
2022-08-31T04:06:33.133Z,1.15
2022-08-31T04:09:01.459Z,1.30
2022-08-31T04:11:44.839Z,1.10
2022-08-31T04:14:15.405Z,1.13
2022-08-31T04:16:45.172Z,1.10
2022-08-31T04:19:15.980Z,1.23
2022-08-31T04:21:44.849Z,1.10
2022-08-31T04:24:13.179Z,1.17
2022-08-31T04:26:41.705Z,1.25
2022-08-31T04:29:13.399Z,1.17
2022-08-31T04:31:41.765Z,1.35
2022-08-31T04:34:11.222Z,1.40
2022-08-31T04:36:39.328Z,1.00
2022-08-31T04:39:07.528Z,1.30
2022-08-31T04:41:36.339Z,1.10
2022-08-31T04:44:05.370Z,1.23
2022-08-31T04:46:34.537Z,1.38
2022-08-31T04:49:02.610Z,1.10
2022-08-31T04:51:35.577Z,1.30
2022-08-31T04:54:04.031Z,1.30
2022-08-31T04:56:33.005Z,1.30
2022-08-31T04:59:01.830Z,1.50
2022-08-31T05:01:36.222Z,1.40
2022-08-31T05:04:10.636Z,1.35
2022-08-31T05:06:41.264Z,1.30
2022-08-31T05:09:10.927Z,1.30
2022-08-31T05:11:39.148Z,1.40
2022-08-31T05:14:08.017Z,1.30
2022-08-31T05:16:36.080Z,1.30
2022-08-31T05:19:04.122Z,1.30
2022-08-31T05:21:32.939Z,1.35
2022-08-31T05:24:03.222Z,1.67
2022-08-31T05:26:32.658Z,1.40
2022-08-31T05:29:01.336Z,1.20
2022-08-31T05:31:30.200Z,1.40
2022-08-31T05:33:58.643Z,1.52
2022-08-31T05:36:26.810Z,1.50
2022-08-31T05:39:00.279Z,1.40
2022-08-31T05:41:30.691Z,1.40
2022-08-31T05:43:58.745Z,1.30
2022-08-31T05:46:27.517Z,1.38
2022-08-31T05:48:55.598Z,1.42
2022-08-31T05:51:23.673Z,1.20
2022-08-31T05:53:51.722Z,1.50
2022-08-31T05:56:23.515Z,1.40
2022-08-31T05:58:53.043Z,1.30
2022-08-31T06:01:22.002Z,1.30
2022-08-31T06:03:50.423Z,1.50
2022-08-31T06:06:18.471Z,1.40
2022-08-31T06:08:46.678Z,1.60
2022-08-31T06:11:17.606Z,1.30
2022-08-31T06:13:45.674Z,1.40
2022-08-31T06:16:17.620Z,1.50
2022-08-31T06:18:49.792Z,1.40
2022-08-31T06:21:21.128Z,1.50
2022-08-31T06:23:49.779Z,1.20
2022-08-31T06:26:18.737Z,1.35
2022-08-31T06:28:48.472Z,1.30
2022-08-31T06:31:24.191Z,1.30
2022-08-31T06:33:53.057Z,1.38
2022-08-31T06:36:22.081Z,1.50
2022-08-31T06:38:50.162Z,1.30
2022-08-31T06:41:19.341Z,1.40
2022-08-31T06:43:47.754Z,1.20
2022-08-31T06:46:17.645Z,1.17
2022-08-31T06:48:45.735Z,1.30
2022-08-31T06:51:13.923Z,1.20
2022-08-31T06:53:42.528Z,1.50
2022-08-31T06:56:20.189Z,1.30
2022-08-31T06:58:53.993Z,1.10
2022-08-31T07:01:38.095Z,1.40
2022-08-31T07:04:07.591Z,1.48
2022-08-31T07:06:38.511Z,1.48
2022-08-31T07:09:07.852Z,1.35
2022-08-31T07:11:39.955Z,1.40
2022-08-31T07:14:12.811Z,1.20
2022-08-31T07:16:45.505Z,1.48
2022-08-31T07:19:14.082Z,1.40
2022-08-31T07:21:43.106Z,1.60
2022-08-31T07:24:11.327Z,1.20
2022-08-31T07:26:40.780Z,1.30
2022-08-31T07:29:10.040Z,1.45
2022-08-31T07:31:44.717Z,1.40
2022-08-31T07:34:14.709Z,1.35
2022-08-31T07:37:00.119Z,1.30
2022-08-31T07:39:45.899Z,1.38
2022-08-31T07:42:14.363Z,1.50
2022-08-31T07:44:42.466Z,1.30
2022-08-31T07:47:22.516Z,1.20
2022-08-31T07:49:52.853Z,1.50
2022-08-31T07:52:23.751Z,1.48
2022-08-31T07:54:51.998Z,1.33
2022-08-31T07:57:22.595Z,1.40
2022-08-31T07:59:55.502Z,1.17
2022-08-31T08:02:23.845Z,1.20
2022-08-31T08:04:53.998Z,1.50
2022-08-31T08:07:22.099Z,1.30
2022-08-31T08:09:50.154Z,1.25
2022-08-31T08:12:22.619Z,1.20
2022-08-31T08:14:52.879Z,1.42
2022-08-31T08:17:20.911Z,1.50
2022-08-31T08:19:49.040Z,1.20
2022-08-31T08:22:41.497Z,1.30
2022-08-31T08:25:09.734Z,1.10
2022-08-31T08:27:37.817Z,1.23
2022-08-31T08:30:06.303Z,1.23
2022-08-31T08:32:34.901Z,1.27
2022-08-31T08:35:02.954Z,1.25
2022-08-31T08:37:56.621Z,1.20
2022-08-31T08:40:28.339Z,1.23
2022-08-31T08:42:56.594Z,1.15
2022-08-31T08:45:24.680Z,1.30
2022-08-31T08:47:54.570Z,1.20
2022-08-31T08:50:22.665Z,1.30
2022-08-31T08:52:52.121Z,1.25
2022-08-31T08:55:22.114Z,1.20
2022-08-31T08:57:52.393Z,1.08
2022-08-31T09:00:21.381Z,1.13
2022-08-31T09:02:58.190Z,1.05
2022-08-31T09:05:35.896Z,1.30
2022-08-31T09:08:16.486Z,1.20
2022-08-31T09:10:46.209Z,1.10
2022-08-31T09:13:19.396Z,1.17
2022-08-31T09:15:56.017Z,1.10
2022-08-31T09:18:33.044Z,1.20
2022-08-31T09:21:05.812Z,1.20
2022-08-31T09:23:38.052Z,1.10
2022-08-31T09:26:08.599Z,1.15
2022-08-31T09:28:38.701Z,1.00
2022-08-31T09:31:06.946Z,1.10
2022-08-31T09:33:36.282Z,1.10
2022-08-31T09:36:17.409Z,1.00
2022-08-31T09:38:47.181Z,1.00
2022-08-31T09:41:22.391Z,1.17
2022-08-31T09:43:51.409Z,1.15
2022-08-31T09:46:24.796Z,1.00
2022-08-31T09:48:56.104Z,1.30
2022-08-31T09:51:25.705Z,1.15
2022-08-31T09:54:13.057Z,1.15
2022-08-31T09:56:55.653Z,1.10
2022-08-31T09:59:43.954Z,1.10
2022-08-31T10:02:13.306Z,1.20
2022-08-31T10:04:51.089Z,1.02
2022-08-31T10:07:28.995Z,1.10
2022-08-31T10:10:00.207Z,1.10
2022-08-31T10:12:34.147Z,1.15
2022-08-31T10:15:05.148Z,1.30
2022-08-31T10:17:36.156Z,1.05
2022-08-31T10:20:08.020Z,1.10
2022-08-31T10:22:41.072Z,1.10
2022-08-31T10:25:17.401Z,1.13
2022-08-31T10:27:48.214Z,1.00
2022-08-31T10:30:24.031Z,1.23
2022-08-31T10:32:55.618Z,1.20
2022-08-31T10:35:28.081Z,0.85
2022-08-31T10:37:59.667Z,1.10
2022-08-31T10:40:32.165Z,1.20
2022-08-31T10:43:18.720Z,1.10
2022-08-31T10:45:48.302Z,1.20
2022-08-31T10:48:17.587Z,1.15
2022-08-31T10:50:49.723Z,1.00
2022-08-31T10:53:32.652Z,1.15
2022-08-31T10:56:14.328Z,1.00
2022-08-31T10:59:04.243Z,1.00
2022-08-31T11:01:36.435Z,1.00
2022-08-31T11:04:26.023Z,1.23
2022-08-31T11:06:58.862Z,1.10
2022-08-31T11:09:32.761Z,0.90
2022-08-31T11:12:07.092Z,1.10
2022-08-31T11:14:48.477Z,0.90
2022-08-31T11:17:23.732Z,1.10
2022-08-31T11:20:03.772Z,1.13
2022-08-31T11:22:38.967Z,0.90
2022-08-31T11:25:16.954Z,0.98
2022-08-31T11:27:46.608Z,1.15
2022-08-31T11:30:26.830Z,1.00
2022-08-31T11:32:56.713Z,1.00
2022-08-31T11:35:57.423Z,1.10
2022-08-31T11:38:50.179Z,1.05
2022-08-31T11:41:43.673Z,0.95
2022-08-31T11:44:45.714Z,1.00
2022-08-31T11:47:14.533Z,1.00
2022-08-31T11:49:47.567Z,0.85
2022-08-31T11:52:29.592Z,1.00
2022-08-31T11:55:01.628Z,1.10
2022-08-31T11:57:35.599Z,1.10
2022-08-31T12:00:08.721Z,0.90
2022-08-31T12:02:44.732Z,0.80
2022-08-31T12:05:13.122Z,1.00
2022-08-31T12:07:42.605Z,0.90
2022-08-31T12:10:27.771Z,1.00
2022-08-31T12:13:19.970Z,1.00
2022-08-31T12:16:23.470Z,1.00
2022-08-31T12:19:39.490Z,1.00
2022-08-31T12:22:32.104Z,0.75
2022-08-31T12:25:09.698Z,0.90
2022-08-31T12:27:41.271Z,0.90
2022-08-31T12:30:16.763Z,0.90
2022-08-31T12:32:44.907Z,1.10
2022-08-31T12:35:17.805Z,0.80
2022-08-31T12:37:45.860Z,0.93
2022-08-31T12:40:19.077Z,0.80
2022-08-31T12:43:01.461Z,1.00
2022-08-31T12:46:01.762Z,1.00
2022-08-31T12:48:48.167Z,0.80
2022-08-31T12:51:33.071Z,1.10
2022-08-31T12:54:21.169Z,1.08
2022-08-31T12:56:53.209Z,0.88
2022-08-31T12:59:45.775Z,0.90
2022-08-31T13:02:16.688Z,0.90
2022-08-31T13:04:46.055Z,0.82
2022-08-31T13:07:16.751Z,1.08
2022-08-31T13:09:45.958Z,0.70
2022-08-31T13:12:22.992Z,0.90
2022-08-31T13:14:51.030Z,0.73
2022-08-31T13:17:21.970Z,0.90
2022-08-31T13:19:52.099Z,0.93
2022-08-31T13:22:28.823Z,0.90
2022-08-31T13:24:57.563Z,0.88
2022-08-31T13:27:26.666Z,0.82
2022-08-31T13:29:56.486Z,0.90
2022-08-31T13:32:33.002Z,0.80
2022-08-31T13:35:04.416Z,1.00
2022-08-31T13:37:39.329Z,0.70
2022-08-31T13:40:09.350Z,0.90
2022-08-31T13:42:42.854Z,0.90
2022-08-31T13:45:26.574Z,0.70
2022-08-31T13:47:57.654Z,0.82
2022-08-31T13:50:27.938Z,0.80
2022-08-31T13:53:25.363Z,0.80
2022-08-31T13:55:48.858Z,1.00
2022-08-31T13:58:26.143Z,1.00
2022-08-31T14:00:58.883Z,0.95
2022-08-31T14:03:45.121Z,0.93
2022-08-31T14:06:24.028Z,0.90
2022-08-31T14:08:55.180Z,0.82
2022-08-31T14:11:29.156Z,0.93
2022-08-31T14:14:04.259Z,0.90
2022-08-31T14:16:35.125Z,0.77
2022-08-31T14:19:03.294Z,0.80
2022-08-31T14:21:32.465Z,1.00
2022-08-31T14:24:02.607Z,1.02
2022-08-31T14:26:37.033Z,1.08
2022-08-31T14:29:12.502Z,0.80
2022-08-31T14:31:44.213Z,0.90
2022-08-31T14:34:32.193Z,0.90
2022-08-31T14:37:02.466Z,0.85
2022-08-31T14:39:33.072Z,0.90
2022-08-31T14:42:02.271Z,0.95
2022-08-31T14:44:32.139Z,0.90
2022-08-31T14:47:00.228Z,0.90
2022-08-31T14:49:31.586Z,0.88
2022-08-31T14:52:04.763Z,1.00
2022-08-31T14:54:37.339Z,0.98
2022-08-31T14:57:08.379Z,1.00
2022-08-31T14:59:37.769Z,0.85
2022-08-31T15:02:06.863Z,0.90
2022-08-31T15:04:34.934Z,0.98
2022-08-31T15:07:09.722Z,0.90
2022-08-31T15:09:41.945Z,0.90
2022-08-31T15:12:14.780Z,0.73
2022-08-31T15:14:44.697Z,0.90
2022-08-31T15:17:18.986Z,1.00
2022-08-31T15:19:50.428Z,1.00
2022-08-31T15:22:19.205Z,0.80
2022-08-31T15:24:49.655Z,0.90
2022-08-31T15:27:17.698Z,0.90
2022-08-31T15:29:47.373Z,0.90
2022-08-31T15:32:16.550Z,1.00
2022-08-31T15:34:57.708Z,0.80
2022-08-31T15:37:27.454Z,0.90
2022-08-31T15:40:02.055Z,0.87
2022-08-31T15:42:36.733Z,0.88
2022-08-31T15:45:05.166Z,0.90
2022-08-31T15:47:53.560Z,1.08
2022-08-31T15:50:23.283Z,0.98
2022-08-31T15:52:52.213Z,0.88
2022-08-31T15:55:26.686Z,0.80
2022-08-31T15:57:55.201Z,0.90
2022-08-31T16:00:23.839Z,0.80
2022-08-31T16:02:57.732Z,0.90
2022-08-31T16:05:28.280Z,0.90
2022-08-31T16:07:57.489Z,1.00
2022-08-31T16:10:28.159Z,1.10
2022-08-31T16:12:56.184Z,0.80
2022-08-31T16:15:25.024Z,0.82
2022-08-31T16:17:57.663Z,1.05
2022-08-31T16:20:27.446Z,1.00
2022-08-31T16:22:55.547Z,1.00
2022-08-31T16:25:25.293Z,0.90
2022-08-31T16:27:59.883Z,0.90
2022-08-31T16:30:27.993Z,0.95
2022-08-31T16:32:56.067Z,0.90
2022-08-31T16:35:24.070Z,0.88
2022-08-31T16:37:52.120Z,0.90
2022-08-31T16:40:23.261Z,0.90
2022-08-31T16:42:51.264Z,1.02
2022-08-31T16:45:20.668Z,0.93
2022-08-31T16:47:48.598Z,1.10
2022-08-31T16:50:16.158Z,0.90
2022-08-31T16:52:44.652Z,0.90
2022-08-31T16:55:17.158Z,1.00
2022-08-31T16:57:45.634Z,0.90
2022-08-31T17:00:14.651Z,1.00
2022-08-31T17:02:44.061Z,0.98
2022-08-31T17:05:12.951Z,1.00
2022-08-31T17:07:42.780Z,1.05
2022-08-31T17:10:11.419Z,1.00
2022-08-31T17:12:42.051Z,0.90
2022-08-31T17:15:14.029Z,1.10
2022-08-31T17:17:46.238Z,1.10
2022-08-31T17:20:16.152Z,1.00
2022-08-31T17:22:46.050Z,0.90
2022-08-31T17:25:14.635Z,0.90
2022-08-31T17:27:42.587Z,1.10
2022-08-31T17:30:13.882Z,1.10
2022-08-31T17:32:45.031Z,1.00
2022-08-31T17:35:18.720Z,0.90
2022-08-31T17:37:47.847Z,1.00
2022-08-31T17:40:16.873Z,1.10
2022-08-31T17:42:46.291Z,1.00
2022-08-31T17:45:15.793Z,1.00
2022-08-31T17:47:45.208Z,1.00
2022-08-31T17:50:17.167Z,0.98
2022-08-31T17:52:45.417Z,1.10
2022-08-31T17:55:13.437Z,1.10
2022-08-31T17:57:42.140Z,1.00
2022-08-31T18:00:14.425Z,1.10
2022-08-31T18:02:42.400Z,1.13
2022-08-31T18:05:15.785Z,0.98
2022-08-31T18:07:43.747Z,0.90
2022-08-31T18:10:12.730Z,1.10
2022-08-31T18:12:42.117Z,1.00
2022-08-31T18:15:11.560Z,1.00
2022-08-31T18:17:40.020Z,1.10
2022-08-31T18:20:09.157Z,0.95
2022-08-31T18:22:39.978Z,1.20
2022-08-31T18:25:08.534Z,1.13
2022-08-31T18:27:36.562Z,1.10
2022-08-31T18:30:05.243Z,1.00
2022-08-31T18:32:36.171Z,1.20
2022-08-31T18:35:05.960Z,1.02
2022-08-31T18:37:34.884Z,1.17
2022-08-31T18:40:22.185Z,1.13
2022-08-31T18:43:07.310Z,1.17
2022-08-31T18:45:39.564Z,1.10
2022-08-31T18:48:24.299Z,1.10
2022-08-31T18:50:55.169Z,1.05
2022-08-31T18:53:28.976Z,1.20
2022-08-31T18:56:00.391Z,1.20
2022-08-31T18:58:28.863Z,1.17
2022-08-31T19:00:57.628Z,1.20
2022-08-31T19:03:27.639Z,1.17
2022-08-31T19:05:56.663Z,1.25
2022-08-31T19:08:25.035Z,1.20
2022-08-31T19:10:57.278Z,1.20
2022-08-31T19:13:29.948Z,1.00
2022-08-31T19:16:02.146Z,1.10
2022-08-31T19:18:34.152Z,1.30
2022-08-31T19:21:11.968Z,1.30
2022-08-31T19:23:39.968Z,0.98
2022-08-31T19:26:08.087Z,1.10
2022-08-31T19:28:37.481Z,1.13
2022-08-31T19:31:06.522Z,1.10
2022-08-31T19:33:34.760Z,1.10
2022-08-31T19:36:04.707Z,1.10
2022-08-31T19:38:32.944Z,1.10
2022-08-31T19:41:01.553Z,1.08
2022-08-31T19:43:53.600Z,1.20
2022-08-31T19:46:21.273Z,1.10
2022-08-31T19:48:49.641Z,1.00
2022-08-31T19:51:18.872Z,1.17
2022-08-31T19:53:46.911Z,0.90
2022-08-31T19:56:17.661Z,1.00
2022-08-31T19:58:47.054Z,1.17
2022-08-31T20:01:15.298Z,1.20
2022-08-31T20:03:45.987Z,0.95
2022-08-31T20:06:15.479Z,1.00
2022-08-31T20:08:44.164Z,1.10
2022-08-31T20:11:14.059Z,1.10
2022-08-31T20:13:44.788Z,1.02
2022-08-31T20:16:13.151Z,1.00
2022-08-31T20:18:46.262Z,1.00
2022-08-31T20:21:17.817Z,0.98
2022-08-31T20:23:47.800Z,1.00
2022-08-31T20:26:15.893Z,1.13
2022-08-31T20:28:43.847Z,0.90
2022-08-31T20:31:12.492Z,0.90
2022-08-31T20:33:43.207Z,0.98
2022-08-31T20:36:18.793Z,0.98
2022-08-31T20:38:46.966Z,0.90
2022-08-31T20:41:14.986Z,0.80
2022-08-31T20:43:44.666Z,0.90
2022-08-31T20:46:33.522Z,0.90
2022-08-31T20:49:27.139Z,1.10
2022-08-31T20:51:56.800Z,0.90
2022-08-31T20:54:25.218Z,0.90
2022-08-31T20:56:53.715Z,0.80
2022-08-31T20:59:23.416Z,0.77
2022-08-31T21:01:55.251Z,1.02
2022-08-31T21:04:23.629Z,1.00
2022-08-31T21:06:52.303Z,0.90
2022-08-31T21:09:21.698Z,0.80
2022-08-31T21:11:49.892Z,1.00
2022-08-31T21:14:20.017Z,0.90
2022-08-31T21:16:48.222Z,1.08
2022-08-31T21:19:17.210Z,1.10
2022-08-31T21:21:47.089Z,0.95
2022-08-31T21:24:17.110Z,1.00
2022-08-31T21:26:46.643Z,0.93
2022-08-31T21:29:16.558Z,0.90
2022-08-31T21:31:51.994Z,0.90
2022-08-31T21:34:26.473Z,0.90
2022-08-31T21:36:54.487Z,0.90
2022-08-31T21:39:22.766Z,0.90
2022-08-31T21:41:52.162Z,0.93
2022-08-31T21:44:20.940Z,1.00
2022-08-31T21:46:50.841Z,0.82
2022-08-31T21:49:19.666Z,0.80
2022-08-31T21:51:49.798Z,0.88
2022-08-31T21:54:19.149Z,0.90
2022-08-31T21:56:48.773Z,1.00
2022-08-31T21:59:19.246Z,0.77
2022-08-31T22:01:47.492Z,0.90
2022-08-31T22:04:16.302Z,0.90
2022-08-31T22:06:44.589Z,0.90
2022-08-31T22:09:13.514Z,1.10
2022-08-31T22:11:43.961Z,0.90
2022-08-31T22:14:12.440Z,0.90
2022-08-31T22:16:42.052Z,1.00
2022-08-31T22:19:13.288Z,0.80
2022-08-31T22:21:43.079Z,0.90
2022-08-31T22:24:12.511Z,1.10
2022-08-31T22:26:54.726Z,0.80
2022-08-31T22:29:24.322Z,1.05
2022-08-31T22:31:54.565Z,0.80
2022-08-31T22:34:22.637Z,0.90
2022-08-31T22:36:52.136Z,1.00
2022-08-31T22:39:21.321Z,0.80
2022-08-31T22:41:49.334Z,0.80
2022-08-31T22:44:19.716Z,0.70
2022-08-31T22:46:47.925Z,0.82
2022-08-31T22:49:17.442Z,0.90
2022-08-31T22:51:48.479Z,0.88
2022-08-31T22:54:16.953Z,0.90
2022-08-31T22:56:45.035Z,1.20
2022-08-31T22:59:14.108Z,0.80
2022-08-31T23:01:43.403Z,0.80
2022-08-31T23:04:12.682Z,1.08
2022-08-31T23:06:42.380Z,1.10
2022-08-31T23:09:11.536Z,0.90
2022-08-31T23:11:39.884Z,0.90
2022-08-31T23:14:10.293Z,0.82
2022-08-31T23:16:39.640Z,1.05
2022-08-31T23:19:12.148Z,0.90
2022-08-31T23:21:43.150Z,0.95
2022-08-31T23:24:11.251Z,1.20
2022-08-31T23:26:40.673Z,1.13
2022-08-31T23:29:10.049Z,0.80
2022-08-31T23:31:38.396Z,1.13
2022-08-31T23:34:09.696Z,1.00
2022-08-31T23:36:37.756Z,1.00
2022-08-31T23:39:07.175Z,0.98
2022-08-31T23:41:38.756Z,0.93
2022-08-31T23:44:09.530Z,0.98
2022-08-31T23:46:38.318Z,0.98
2022-08-31T23:49:07.134Z,1.27
2022-08-31T23:51:35.350Z,1.20
2022-08-31T23:54:06.464Z,1.17
2022-08-31T23:56:36.493Z,0.90
2022-08-31T23:59:08.983Z,1.17
